createdAt,value
2023-04-22T00:03:42.292Z,11.02
2023-04-22T00:08:44.340Z,10.55
2023-04-22T00:13:46.251Z,10.90
2023-04-22T00:18:48.788Z,8.25
2023-04-22T00:23:50.560Z,9.18
2023-04-22T00:28:52.265Z,10.07
2023-04-22T00:33:53.998Z,11.50
2023-04-22T00:38:55.638Z,10.38
2023-04-22T00:43:57.448Z,11.27
2023-04-22T00:48:59.999Z,8.80
2023-04-22T00:54:06.006Z,10.98
2023-04-22T00:59:09.373Z,9.25
2023-04-22T01:04:14.357Z,8.55
2023-04-22T01:09:16.275Z,10.27
2023-04-22T01:14:18.094Z,13.13
2023-04-22T01:19:20.083Z,13.35
2023-04-22T01:24:22.210Z,13.95
2023-04-22T01:29:24.656Z,9.75
2023-04-22T01:34:26.910Z,10.65
2023-04-22T01:39:30.253Z,20.48
2023-04-22T01:44:31.852Z,14.35
2023-04-22T01:49:33.760Z,16.30
2023-04-22T01:54:35.751Z,10.98
2023-04-22T01:59:38.308Z,11.13
2023-04-22T02:04:40.071Z,10.80
2023-04-22T02:09:42.034Z,14.60
2023-04-22T02:14:43.856Z,10.65
2023-04-22T02:19:45.607Z,9.88
2023-04-22T02:24:47.378Z,12.68
2023-04-22T02:29:49.587Z,11.48
2023-04-22T02:34:52.402Z,10.32
2023-04-22T02:39:55.758Z,8.23
2023-04-22T02:44:57.363Z,8.63
2023-04-22T02:49:58.976Z,10.55
2023-04-22T02:55:01.201Z,10.77
2023-04-22T03:00:04.447Z,14.10
2023-04-22T03:05:07.000Z,10.68
2023-04-22T03:10:09.551Z,8.60
2023-04-22T03:15:11.921Z,9.25
2023-04-22T03:20:13.671Z,9.07
2023-04-22T03:25:17.438Z,12.90
2023-04-22T03:30:25.307Z,15.93
2023-04-22T03:35:28.025Z,12.18
2023-04-22T03:40:33.512Z,9.80
2023-04-22T03:45:38.934Z,12.20
2023-04-22T03:51:02.870Z,11.35
2023-04-22T03:56:10.366Z,12.63
2023-04-22T04:01:18.289Z,11.17
2023-04-22T04:06:25.212Z,11.70
2023-04-22T04:11:26.906Z,12.43
2023-04-22T04:16:30.561Z,11.02
2023-04-22T04:21:39.724Z,14.10
2023-04-22T04:26:42.567Z,13.15
2023-04-22T04:31:50.483Z,10.48
2023-04-22T04:36:52.501Z,12.82
2023-04-22T04:42:00.803Z,12.27
2023-04-22T04:47:05.337Z,11.02
2023-04-22T04:52:11.969Z,19.50
2023-04-22T04:57:14.124Z,21.20
2023-04-22T05:02:16.234Z,18.30
2023-04-22T05:07:18.160Z,20.40
2023-04-22T05:12:21.169Z,12.48
2023-04-22T05:17:23.118Z,11.27
2023-04-22T05:22:25.052Z,17.40
2023-04-22T05:27:28.544Z,23.80
2023-04-22T05:32:30.651Z,10.23
2023-04-22T05:37:32.630Z,12.70
2023-04-22T05:42:35.469Z,8.63
2023-04-22T05:47:37.224Z,10.95
2023-04-22T05:52:40.044Z,12.23
2023-04-22T05:57:47.436Z,15.77
2023-04-22T06:03:09.262Z,10.18
2023-04-22T06:08:11.310Z,14.98
2023-04-22T06:13:12.986Z,12.57
2023-04-22T06:18:14.612Z,12.73
2023-04-22T06:23:16.477Z,14.85
2023-04-22T06:28:18.182Z,14.43
2023-04-22T06:33:22.114Z,14.45
2023-04-22T06:38:25.056Z,17.15
2023-04-22T06:43:46.300Z,12.57
2023-04-22T06:48:53.884Z,10.73
2023-04-22T06:54:16.036Z,13.98
2023-04-22T06:59:17.945Z,15.10
2023-04-22T07:04:22.068Z,12.23
2023-04-22T07:09:24.644Z,17.85
2023-04-22T07:14:29.637Z,13.43
2023-04-22T07:19:33.216Z,16.75
2023-04-22T07:24:36.383Z,12.90
2023-04-22T07:29:38.360Z,16.42
2023-04-22T07:34:40.386Z,13.00
2023-04-22T07:39:42.332Z,11.82
2023-04-22T07:44:44.088Z,13.43
2023-04-22T07:49:45.719Z,15.85
2023-04-22T07:54:47.332Z,16.88
2023-04-22T07:59:49.899Z,13.68
2023-04-22T08:04:52.078Z,10.93
2023-04-22T08:09:55.998Z,15.43
2023-04-22T08:14:58.936Z,19.45
2023-04-22T08:20:00.691Z,9.27
2023-04-22T08:25:02.984Z,18.25
2023-04-22T08:30:06.721Z,12.05
2023-04-22T08:35:08.780Z,13.30
2023-04-22T08:40:10.730Z,12.57
2023-04-22T08:45:13.827Z,12.75
2023-04-22T08:50:15.820Z,7.07
2023-04-22T08:55:17.607Z,13.55
2023-04-22T09:00:19.489Z,12.02
2023-04-22T09:05:24.371Z,11.50
2023-04-22T09:10:28.441Z,13.38
2023-04-22T09:15:30.313Z,10.93
2023-04-22T09:20:31.979Z,9.88
2023-04-22T09:25:36.895Z,10.75
2023-04-22T09:30:38.751Z,8.65
2023-04-22T09:35:41.995Z,11.15
2023-04-22T09:40:44.702Z,10.02
2023-04-22T09:45:46.479Z,10.93
2023-04-22T09:50:51.309Z,11.05
2023-04-22T09:55:54.787Z,9.85
2023-04-22T10:00:59.001Z,9.60
2023-04-22T10:06:00.860Z,8.60
2023-04-22T10:11:02.845Z,7.13
2023-04-22T10:16:04.982Z,8.57
2023-04-22T10:21:07.394Z,8.98
2023-04-22T10:26:09.464Z,8.90
2023-04-22T10:31:23.953Z,7.70
2023-04-22T10:36:26.069Z,8.07
2023-04-22T10:41:34.625Z,8.15
2023-04-22T10:46:40.190Z,9.82
2023-04-22T10:51:43.145Z,12.70
2023-04-22T10:57:07.743Z,10.57
2023-04-22T11:02:11.981Z,5.97
2023-04-22T11:07:26.563Z,8.40
2023-04-22T11:12:42.795Z,9.90
2023-04-22T11:17:46.471Z,9.05
2023-04-22T11:22:51.391Z,9.13
2023-04-22T11:27:55.079Z,6.30
2023-04-22T11:32:59.785Z,8.45
2023-04-22T11:38:06.181Z,4.63
2023-04-22T11:43:09.767Z,8.25
2023-04-22T11:48:11.914Z,6.22
2023-04-22T11:53:18.949Z,7.85
2023-04-22T11:58:27.080Z,5.90
2023-04-22T12:03:30.624Z,7.87
2023-04-22T12:08:41.950Z,6.63
2023-04-22T12:13:46.367Z,8.80
2023-04-22T12:18:49.011Z,4.22
2023-04-22T12:24:08.587Z,8.40
2023-04-22T12:29:10.806Z,3.25
2023-04-22T12:34:12.628Z,6.43
2023-04-22T12:39:15.272Z,9.27
2023-04-22T12:44:17.638Z,3.45
2023-04-22T12:49:19.273Z,6.80
2023-04-22T12:54:21.470Z,4.55
2023-04-22T12:59:23.232Z,3.15
2023-04-22T13:04:25.014Z,8.00
2023-04-22T13:09:27.087Z,3.17
2023-04-22T13:14:28.729Z,8.50
2023-04-22T13:19:31.842Z,5.80
2023-04-22T13:24:33.461Z,10.85
2023-04-22T13:29:35.411Z,3.67
2023-04-22T13:34:38.215Z,7.80
2023-04-22T13:39:40.200Z,5.65
2023-04-22T13:44:42.009Z,4.53
2023-04-22T13:49:43.596Z,3.85
2023-04-22T13:54:46.049Z,6.40
2023-04-22T13:59:49.753Z,4.15
2023-04-22T14:04:51.353Z,12.68
2023-04-22T14:09:52.948Z,5.45
2023-04-22T14:14:54.529Z,6.78
2023-04-22T14:19:56.122Z,9.23
2023-04-22T14:24:57.907Z,6.07
2023-04-22T14:29:59.627Z,3.67
2023-04-22T14:35:01.439Z,9.18
2023-04-22T14:40:04.239Z,7.45
2023-04-22T14:45:06.314Z,4.30
2023-04-22T14:50:08.194Z,7.03
2023-04-22T14:55:21.922Z,7.28
2023-04-22T15:00:25.506Z,8.23
2023-04-22T15:05:27.416Z,3.90
2023-04-22T15:10:29.041Z,8.98
2023-04-22T15:15:30.705Z,5.80
2023-04-22T15:20:32.857Z,6.35
2023-04-22T15:25:35.667Z,3.20
2023-04-22T15:30:37.455Z,7.22
2023-04-22T15:35:39.130Z,9.10
2023-04-22T15:40:40.813Z,4.75
2023-04-22T15:45:42.492Z,4.55
2023-04-22T15:50:44.416Z,6.15
2023-04-22T15:55:47.428Z,4.50
2023-04-22T16:00:50.367Z,7.05
2023-04-22T16:05:52.122Z,5.05
2023-04-22T16:10:53.731Z,5.80
2023-04-22T16:15:55.392Z,5.45
2023-04-22T16:20:59.783Z,4.57
2023-04-22T16:26:02.768Z,4.57
2023-04-22T16:31:04.471Z,7.15
2023-04-22T16:36:08.612Z,8.77
2023-04-22T16:41:11.668Z,6.05
2023-04-22T16:46:13.883Z,3.75
2023-04-22T16:51:15.743Z,4.00
2023-04-22T16:56:17.424Z,4.65
2023-04-22T17:01:19.206Z,5.10
2023-04-22T17:06:21.614Z,5.50
2023-04-22T17:11:24.004Z,10.70
2023-04-22T17:16:25.728Z,11.95
2023-04-22T17:21:28.032Z,5.10
2023-04-22T17:26:29.703Z,8.50
2023-04-22T17:31:32.234Z,4.95
2023-04-22T17:36:34.048Z,8.93
2023-04-22T17:41:36.077Z,7.10
2023-04-22T17:46:37.802Z,8.88
2023-04-22T17:51:40.119Z,6.55
2023-04-22T17:56:42.079Z,9.60
2023-04-22T18:01:44.398Z,8.88
2023-04-22T18:06:46.049Z,6.65
2023-04-22T18:11:47.682Z,5.82
2023-04-22T18:16:49.720Z,6.07
2023-04-22T18:21:59.605Z,6.22
2023-04-22T18:27:02.842Z,5.47
2023-04-22T18:32:04.752Z,8.10
2023-04-22T18:37:07.304Z,9.95
2023-04-22T18:42:09.081Z,7.47
2023-04-22T18:47:10.785Z,6.57
2023-04-22T18:52:12.512Z,7.43
2023-04-22T18:57:14.121Z,6.82
2023-04-22T19:02:16.289Z,9.57
2023-04-22T19:07:17.867Z,7.47
2023-04-22T19:12:19.792Z,5.72
2023-04-22T19:17:21.468Z,11.00
2023-04-22T19:22:23.375Z,10.63
2023-04-22T19:27:25.781Z,9.70
2023-04-22T19:32:27.511Z,8.20
2023-04-22T19:37:29.132Z,9.05
2023-04-22T19:42:30.763Z,6.15
2023-04-22T19:47:32.561Z,6.85
2023-04-22T19:52:36.201Z,6.97
2023-04-22T19:57:41.943Z,9.85
2023-04-22T20:02:44.024Z,9.57
2023-04-22T20:07:47.219Z,8.52
2023-04-22T20:12:49.442Z,9.25
2023-04-22T20:17:51.723Z,8.32
2023-04-22T20:22:54.718Z,12.50
2023-04-22T20:27:56.641Z,10.90
2023-04-22T20:32:58.327Z,5.13
2023-04-22T20:38:00.904Z,7.40
2023-04-22T20:43:03.366Z,10.65
2023-04-22T20:48:05.219Z,7.75
2023-04-22T20:53:07.084Z,9.80
2023-04-22T20:58:09.208Z,7.72
2023-04-22T21:03:14.705Z,11.88
2023-04-22T21:08:25.336Z,10.70
2023-04-22T21:13:28.869Z,10.15
2023-04-22T21:18:32.875Z,9.32
2023-04-22T21:23:34.761Z,6.20
2023-04-22T21:28:37.296Z,7.00
2023-04-22T21:33:38.940Z,8.85
2023-04-22T21:38:40.694Z,7.60
2023-04-22T21:43:42.366Z,12.07
2023-04-22T21:48:44.057Z,6.22
2023-04-22T21:53:45.728Z,6.25
2023-04-22T21:58:47.569Z,6.95
2023-04-22T22:03:49.292Z,7.85
2023-04-22T22:08:50.957Z,8.35
2023-04-22T22:13:52.597Z,5.80
2023-04-22T22:18:55.707Z,8.23
2023-04-22T22:23:57.880Z,8.00
2023-04-22T22:28:59.829Z,8.60
2023-04-22T22:34:01.445Z,7.63
2023-04-22T22:39:04.779Z,11.20
2023-04-22T22:44:06.391Z,8.82
2023-04-22T22:49:09.184Z,8.25
2023-04-22T22:54:10.812Z,7.13
2023-04-22T22:59:12.407Z,6.75
2023-04-22T23:04:15.705Z,10.75
2023-04-22T23:09:19.072Z,10.32
2023-04-22T23:14:22.206Z,13.45
2023-04-22T23:19:24.787Z,20.02
2023-04-22T23:24:26.667Z,8.82
2023-04-22T23:29:28.696Z,11.18
2023-04-22T23:34:31.845Z,10.60
2023-04-22T23:39:33.591Z,9.30
2023-04-22T23:44:35.841Z,7.65
2023-04-22T23:49:37.558Z,9.38
2023-04-22T23:54:40.281Z,14.50
2023-04-22T23:59:42.392Z,9.05
